sensor_id;sensor_type;location;lat;lon;timestamp;P1;durP1;ratioP1;P2;durP2;ratioP2
25391;SDS011;13329;48.402;11.718;2022-08-19T00:02:11;13.80;;;7.03;;
25391;SDS011;13329;48.402;11.718;2022-08-19T00:04:37;16.33;;;8.10;;
25391;SDS011;13329;48.402;11.718;2022-08-19T00:07:03;14.18;;;8.75;;
25391;SDS011;13329;48.402;11.718;2022-08-19T00:09:28;15.55;;;8.48;;
25391;SDS011;13329;48.402;11.718;2022-08-19T00:11:54;14.85;;;7.35;;
25391;SDS011;13329;48.402;11.718;2022-08-19T00:14:20;11.90;;;6.80;;
25391;SDS011;13329;48.402;11.718;2022-08-19T00:16:47;11.75;;;6.43;;
25391;SDS011;13329;48.402;11.718;2022-08-19T00:19:13;13.32;;;7.43;;
25391;SDS011;13329;48.402;11.718;2022-08-19T00:21:38;9.77;;;6.10;;
25391;SDS011;13329;48.402;11.718;2022-08-19T00:24:05;11.85;;;6.13;;
25391;SDS011;13329;48.402;11.718;2022-08-19T00:26:30;12.70;;;5.95;;
25391;SDS011;13329;48.402;11.718;2022-08-19T00:28:56;9.85;;;5.40;;
25391;SDS011;13329;48.402;11.718;2022-08-19T00:31:21;10.20;;;6.00;;
25391;SDS011;13329;48.402;11.718;2022-08-19T00:33:46;9.20;;;5.60;;
25391;SDS011;13329;48.402;11.718;2022-08-19T00:36:14;11.77;;;6.60;;
25391;SDS011;13329;48.402;11.718;2022-08-19T00:38:39;10.67;;;6.10;;
25391;SDS011;13329;48.402;11.718;2022-08-19T00:41:08;10.02;;;6.18;;
25391;SDS011;13329;48.402;11.718;2022-08-19T00:43:33;11.13;;;6.55;;
25391;SDS011;13329;48.402;11.718;2022-08-19T00:45:59;13.80;;;7.20;;
25391;SDS011;13329;48.402;11.718;2022-08-19T00:48:24;10.77;;;6.63;;
25391;SDS011;13329;48.402;11.718;2022-08-19T00:50:49;10.97;;;5.87;;
25391;SDS011;13329;48.402;11.718;2022-08-19T00:53:16;12.20;;;6.63;;
25391;SDS011;13329;48.402;11.718;2022-08-19T00:55:47;12.10;;;5.65;;
25391;SDS011;13329;48.402;11.718;2022-08-19T00:58:14;8.75;;;5.85;;
25391;SDS011;13329;48.402;11.718;2022-08-19T01:00:39;9.60;;;6.07;;
25391;SDS011;13329;48.402;11.718;2022-08-19T01:03:05;9.23;;;5.70;;
25391;SDS011;13329;48.402;11.718;2022-08-19T01:05:31;9.57;;;5.90;;
25391;SDS011;13329;48.402;11.718;2022-08-19T01:07:57;7.87;;;4.90;;
25391;SDS011;13329;48.402;11.718;2022-08-19T01:10:24;10.98;;;5.97;;
25391;SDS011;13329;48.402;11.718;2022-08-19T01:12:50;9.85;;;5.50;;
25391;SDS011;13329;48.402;11.718;2022-08-19T01:15:17;10.48;;;5.90;;
25391;SDS011;13329;48.402;11.718;2022-08-19T01:17:43;11.70;;;5.65;;
25391;SDS011;13329;48.402;11.718;2022-08-19T01:20:12;11.75;;;6.40;;
25391;SDS011;13329;48.402;11.718;2022-08-19T01:22:41;8.15;;;4.78;;
25391;SDS011;13329;48.402;11.718;2022-08-19T01:25:07;12.95;;;6.50;;
25391;SDS011;13329;48.402;11.718;2022-08-19T01:27:40;10.70;;;6.00;;
25391;SDS011;13329;48.402;11.718;2022-08-19T01:30:06;9.52;;;6.15;;
25391;SDS011;13329;48.402;11.718;2022-08-19T01:32:32;12.13;;;6.30;;
25391;SDS011;13329;48.402;11.718;2022-08-19T01:34:57;11.85;;;6.47;;
25391;SDS011;13329;48.402;11.718;2022-08-19T01:37:22;13.53;;;6.40;;
25391;SDS011;13329;48.402;11.718;2022-08-19T01:39:48;12.88;;;6.80;;
25391;SDS011;13329;48.402;11.718;2022-08-19T01:42:14;10.10;;;5.97;;
25391;SDS011;13329;48.402;11.718;2022-08-19T01:44:39;10.23;;;6.00;;
25391;SDS011;13329;48.402;11.718;2022-08-19T01:47:05;10.57;;;6.53;;
25391;SDS011;13329;48.402;11.718;2022-08-19T01:49:31;9.48;;;5.40;;
25391;SDS011;13329;48.402;11.718;2022-08-19T01:51:56;9.03;;;5.77;;
25391;SDS011;13329;48.402;11.718;2022-08-19T01:54:23;9.90;;;5.63;;
25391;SDS011;13329;48.402;11.718;2022-08-19T01:56:49;10.20;;;6.03;;
25391;SDS011;13329;48.402;11.718;2022-08-19T01:59:16;9.45;;;5.78;;
25391;SDS011;13329;48.402;11.718;2022-08-19T02:01:42;10.30;;;6.25;;
25391;SDS011;13329;48.402;11.718;2022-08-19T02:04:07;10.02;;;6.18;;
25391;SDS011;13329;48.402;11.718;2022-08-19T02:06:33;10.90;;;6.40;;
25391;SDS011;13329;48.402;11.718;2022-08-19T02:08:58;9.97;;;5.50;;
25391;SDS011;13329;48.402;11.718;2022-08-19T02:11:25;10.18;;;5.53;;
25391;SDS011;13329;48.402;11.718;2022-08-19T02:13:51;10.82;;;5.95;;
25391;SDS011;13329;48.402;11.718;2022-08-19T02:16:17;8.82;;;5.60;;
25391;SDS011;13329;48.402;11.718;2022-08-19T02:18:42;7.68;;;4.68;;
25391;SDS011;13329;48.402;11.718;2022-08-19T02:21:08;8.77;;;5.15;;
25391;SDS011;13329;48.402;11.718;2022-08-19T02:23:33;8.60;;;5.53;;
25391;SDS011;13329;48.402;11.718;2022-08-19T02:25:58;7.80;;;4.83;;
25391;SDS011;13329;48.402;11.718;2022-08-19T02:28:23;9.33;;;5.00;;
25391;SDS011;13329;48.402;11.718;2022-08-19T02:30:48;10.80;;;5.37;;
25391;SDS011;13329;48.402;11.718;2022-08-19T02:33:13;11.07;;;5.17;;
25391;SDS011;13329;48.402;11.718;2022-08-19T02:35:43;9.55;;;5.47;;
25391;SDS011;13329;48.402;11.718;2022-08-19T02:38:08;8.77;;;5.15;;
25391;SDS011;13329;48.402;11.718;2022-08-19T02:41:02;7.80;;;4.53;;
25391;SDS011;13329;48.402;11.718;2022-08-19T02:43:28;7.50;;;4.22;;
25391;SDS011;13329;48.402;11.718;2022-08-19T02:45:53;9.00;;;4.80;;
25391;SDS011;13329;48.402;11.718;2022-08-19T02:48:20;7.13;;;4.55;;
25391;SDS011;13329;48.402;11.718;2022-08-19T02:50:45;10.07;;;5.22;;
25391;SDS011;13329;48.402;11.718;2022-08-19T02:53:11;7.93;;;4.30;;
25391;SDS011;13329;48.402;11.718;2022-08-19T02:55:42;8.27;;;4.07;;
25391;SDS011;13329;48.402;11.718;2022-08-19T02:58:07;6.53;;;3.88;;
25391;SDS011;13329;48.402;11.718;2022-08-19T03:00:33;7.93;;;4.07;;
25391;SDS011;13329;48.402;11.718;2022-08-19T03:02:58;8.67;;;4.40;;
25391;SDS011;13329;48.402;11.718;2022-08-19T03:05:24;5.57;;;3.53;;
25391;SDS011;13329;48.402;11.718;2022-08-19T03:07:49;5.80;;;3.43;;
25391;SDS011;13329;48.402;11.718;2022-08-19T03:10:15;5.63;;;3.97;;
25391;SDS011;13329;48.402;11.718;2022-08-19T03:12:40;6.25;;;3.63;;
25391;SDS011;13329;48.402;11.718;2022-08-19T03:15:05;6.67;;;3.93;;
25391;SDS011;13329;48.402;11.718;2022-08-19T03:17:32;6.28;;;3.63;;
25391;SDS011;13329;48.402;11.718;2022-08-19T03:19:57;5.95;;;3.25;;
25391;SDS011;13329;48.402;11.718;2022-08-19T03:22:23;7.13;;;3.67;;
25391;SDS011;13329;48.402;11.718;2022-08-19T03:24:48;6.40;;;3.80;;
25391;SDS011;13329;48.402;11.718;2022-08-19T03:27:13;6.97;;;3.10;;
25391;SDS011;13329;48.402;11.718;2022-08-19T03:29:39;5.97;;;3.13;;
25391;SDS011;13329;48.402;11.718;2022-08-19T03:32:04;4.60;;;2.80;;
25391;SDS011;13329;48.402;11.718;2022-08-19T03:34:30;4.97;;;3.47;;
25391;SDS011;13329;48.402;11.718;2022-08-19T03:36:57;5.85;;;3.72;;
25391;SDS011;13329;48.402;11.718;2022-08-19T03:39:23;4.85;;;3.20;;
25391;SDS011;13329;48.402;11.718;2022-08-19T03:41:49;4.88;;;3.15;;
25391;SDS011;13329;48.402;11.718;2022-08-19T03:44:19;4.90;;;3.10;;
25391;SDS011;13329;48.402;11.718;2022-08-19T03:46:49;6.78;;;2.85;;
25391;SDS011;13329;48.402;11.718;2022-08-19T03:49:15;7.45;;;3.40;;
25391;SDS011;13329;48.402;11.718;2022-08-19T03:51:41;6.68;;;3.92;;
25391;SDS011;13329;48.402;11.718;2022-08-19T03:54:09;6.72;;;3.83;;
25391;SDS011;13329;48.402;11.718;2022-08-19T03:56:35;5.93;;;3.72;;
25391;SDS011;13329;48.402;11.718;2022-08-19T03:59:01;8.07;;;4.38;;
25391;SDS011;13329;48.402;11.718;2022-08-19T04:01:27;10.13;;;4.47;;
25391;SDS011;13329;48.402;11.718;2022-08-19T04:03:53;8.35;;;4.30;;
25391;SDS011;13329;48.402;11.718;2022-08-19T04:06:20;8.30;;;4.47;;
25391;SDS011;13329;48.402;11.718;2022-08-19T04:08:46;8.43;;;4.70;;
25391;SDS011;13329;48.402;11.718;2022-08-19T04:11:12;6.43;;;4.10;;
25391;SDS011;13329;48.402;11.718;2022-08-19T04:13:38;7.03;;;4.72;;
25391;SDS011;13329;48.402;11.718;2022-08-19T04:16:04;9.23;;;4.47;;
25391;SDS011;13329;48.402;11.718;2022-08-19T04:18:30;7.18;;;4.30;;
25391;SDS011;13329;48.402;11.718;2022-08-19T04:20:56;7.10;;;4.50;;
25391;SDS011;13329;48.402;11.718;2022-08-19T04:23:22;8.98;;;5.43;;
25391;SDS011;13329;48.402;11.718;2022-08-19T04:25:47;7.60;;;4.60;;
25391;SDS011;13329;48.402;11.718;2022-08-19T04:28:12;9.27;;;5.13;;
25391;SDS011;13329;48.402;11.718;2022-08-19T04:30:42;8.70;;;4.63;;
25391;SDS011;13329;48.402;11.718;2022-08-19T04:33:07;10.50;;;5.43;;
25391;SDS011;13329;48.402;11.718;2022-08-19T04:35:37;8.80;;;5.20;;
25391;SDS011;13329;48.402;11.718;2022-08-19T04:38:02;9.82;;;5.32;;
25391;SDS011;13329;48.402;11.718;2022-08-19T04:40:28;9.47;;;5.63;;
25391;SDS011;13329;48.402;11.718;2022-08-19T04:43:11;12.10;;;5.95;;
25391;SDS011;13329;48.402;11.718;2022-08-19T04:45:39;11.00;;;5.47;;
25391;SDS011;13329;48.402;11.718;2022-08-19T04:48:05;10.65;;;5.70;;
25391;SDS011;13329;48.402;11.718;2022-08-19T04:50:30;9.93;;;5.38;;
25391;SDS011;13329;48.402;11.718;2022-08-19T04:52:55;11.02;;;5.75;;
25391;SDS011;13329;48.402;11.718;2022-08-19T04:55:20;12.00;;;5.93;;
25391;SDS011;13329;48.402;11.718;2022-08-19T04:57:46;10.43;;;6.07;;
25391;SDS011;13329;48.402;11.718;2022-08-19T05:00:11;11.57;;;5.77;;
25391;SDS011;13329;48.402;11.718;2022-08-19T05:02:37;8.77;;;5.13;;
25391;SDS011;13329;48.402;11.718;2022-08-19T05:05:02;11.63;;;6.55;;
25391;SDS011;13329;48.402;11.718;2022-08-19T05:07:28;10.07;;;5.85;;
25391;SDS011;13329;48.402;11.718;2022-08-19T05:09:54;13.15;;;7.22;;
25391;SDS011;13329;48.402;11.718;2022-08-19T05:12:20;10.80;;;6.45;;
25391;SDS011;13329;48.402;11.718;2022-08-19T05:14:45;11.90;;;6.72;;
25391;SDS011;13329;48.402;11.718;2022-08-19T05:17:11;10.15;;;6.63;;
25391;SDS011;13329;48.402;11.718;2022-08-19T05:19:37;11.20;;;6.70;;
25391;SDS011;13329;48.402;11.718;2022-08-19T05:22:20;9.75;;;6.03;;
25391;SDS011;13329;48.402;11.718;2022-08-19T05:24:59;10.30;;;5.97;;
25391;SDS011;13329;48.402;11.718;2022-08-19T05:27:25;10.45;;;5.72;;
25391;SDS011;13329;48.402;11.718;2022-08-19T05:29:51;10.68;;;6.18;;
25391;SDS011;13329;48.402;11.718;2022-08-19T05:32:16;10.73;;;6.23;;
25391;SDS011;13329;48.402;11.718;2022-08-19T05:34:41;13.13;;;7.10;;
25391;SDS011;13329;48.402;11.718;2022-08-19T05:37:06;12.48;;;6.60;;
25391;SDS011;13329;48.402;11.718;2022-08-19T05:39:33;10.25;;;6.60;;
25391;SDS011;13329;48.402;11.718;2022-08-19T05:41:59;10.98;;;6.22;;
25391;SDS011;13329;48.402;11.718;2022-08-19T05:44:25;14.95;;;6.78;;
25391;SDS011;13329;48.402;11.718;2022-08-19T05:46:51;13.25;;;6.95;;
25391;SDS011;13329;48.402;11.718;2022-08-19T05:49:18;11.63;;;6.55;;
25391;SDS011;13329;48.402;11.718;2022-08-19T05:51:43;13.85;;;7.82;;
25391;SDS011;13329;48.402;11.718;2022-08-19T05:54:09;12.32;;;7.00;;
25391;SDS011;13329;48.402;11.718;2022-08-19T05:56:36;14.70;;;7.07;;
25391;SDS011;13329;48.402;11.718;2022-08-19T05:59:02;11.55;;;6.85;;
25391;SDS011;13329;48.402;11.718;2022-08-19T06:01:29;14.02;;;8.00;;
25391;SDS011;13329;48.402;11.718;2022-08-19T06:03:54;14.55;;;7.22;;
25391;SDS011;13329;48.402;11.718;2022-08-19T06:06:20;18.55;;;8.43;;
25391;SDS011;13329;48.402;11.718;2022-08-19T06:08:45;17.52;;;8.52;;
25391;SDS011;13329;48.402;11.718;2022-08-19T06:11:17;15.77;;;7.75;;
25391;SDS011;13329;48.402;11.718;2022-08-19T06:13:42;12.95;;;7.82;;
25391;SDS011;13329;48.402;11.718;2022-08-19T06:16:08;15.45;;;8.13;;
25391;SDS011;13329;48.402;11.718;2022-08-19T06:18:33;19.07;;;8.67;;
25391;SDS011;13329;48.402;11.718;2022-08-19T06:20:58;17.80;;;9.07;;
25391;SDS011;13329;48.402;11.718;2022-08-19T06:23:23;16.52;;;8.68;;
25391;SDS011;13329;48.402;11.718;2022-08-19T06:25:49;14.73;;;8.03;;
25391;SDS011;13329;48.402;11.718;2022-08-19T06:28:14;14.93;;;8.50;;
25391;SDS011;13329;48.402;11.718;2022-08-19T06:30:39;12.13;;;7.53;;
25391;SDS011;13329;48.402;11.718;2022-08-19T06:33:04;15.45;;;8.20;;
25391;SDS011;13329;48.402;11.718;2022-08-19T06:35:29;18.33;;;7.97;;
25391;SDS011;13329;48.402;11.718;2022-08-19T06:37:55;15.37;;;8.80;;
25391;SDS011;13329;48.402;11.718;2022-08-19T06:40:20;18.10;;;9.13;;
25391;SDS011;13329;48.402;11.718;2022-08-19T06:42:45;20.77;;;10.07;;
25391;SDS011;13329;48.402;11.718;2022-08-19T06:45:10;17.02;;;8.13;;
25391;SDS011;13329;48.402;11.718;2022-08-19T06:47:35;18.08;;;9.77;;
25391;SDS011;13329;48.402;11.718;2022-08-19T06:50:01;24.42;;;10.15;;
25391;SDS011;13329;48.402;11.718;2022-08-19T06:52:29;23.90;;;10.57;;
25391;SDS011;13329;48.402;11.718;2022-08-19T06:54:54;22.20;;;10.27;;
25391;SDS011;13329;48.402;11.718;2022-08-19T06:57:23;20.10;;;10.98;;
25391;SDS011;13329;48.402;11.718;2022-08-19T06:59:48;18.02;;;10.05;;
25391;SDS011;13329;48.402;11.718;2022-08-19T07:02:13;19.23;;;10.97;;
25391;SDS011;13329;48.402;11.718;2022-08-19T07:04:38;22.40;;;10.07;;
25391;SDS011;13329;48.402;11.718;2022-08-19T07:07:05;21.40;;;10.97;;
25391;SDS011;13329;48.402;11.718;2022-08-19T07:09:32;19.83;;;10.07;;
25391;SDS011;13329;48.402;11.718;2022-08-19T07:11:58;21.37;;;10.70;;
25391;SDS011;13329;48.402;11.718;2022-08-19T07:14:25;23.90;;;12.10;;
25391;SDS011;13329;48.402;11.718;2022-08-19T07:16:51;21.63;;;11.63;;
25391;SDS011;13329;48.402;11.718;2022-08-19T07:19:16;26.25;;;12.63;;
25391;SDS011;13329;48.402;11.718;2022-08-19T07:21:42;21.90;;;11.55;;
25391;SDS011;13329;48.402;11.718;2022-08-19T07:24:07;26.33;;;13.20;;
25391;SDS011;13329;48.402;11.718;2022-08-19T07:26:33;22.00;;;12.17;;
25391;SDS011;13329;48.402;11.718;2022-08-19T07:29:02;22.52;;;10.93;;
25391;SDS011;13329;48.402;11.718;2022-08-19T07:31:27;25.13;;;12.63;;
25391;SDS011;13329;48.402;11.718;2022-08-19T07:33:53;22.88;;;11.30;;
25391;SDS011;13329;48.402;11.718;2022-08-19T07:36:21;21.67;;;11.35;;
25391;SDS011;13329;48.402;11.718;2022-08-19T07:38:47;25.30;;;13.43;;
25391;SDS011;13329;48.402;11.718;2022-08-19T07:41:14;24.45;;;13.02;;
25391;SDS011;13329;48.402;11.718;2022-08-19T07:43:40;26.42;;;13.35;;
25391;SDS011;13329;48.402;11.718;2022-08-19T07:46:05;26.40;;;12.43;;
25391;SDS011;13329;48.402;11.718;2022-08-19T07:48:31;24.55;;;13.57;;
25391;SDS011;13329;48.402;11.718;2022-08-19T07:50:57;25.42;;;13.50;;
25391;SDS011;13329;48.402;11.718;2022-08-19T07:53:24;26.08;;;13.60;;
25391;SDS011;13329;48.402;11.718;2022-08-19T07:55:49;25.70;;;13.20;;
25391;SDS011;13329;48.402;11.718;2022-08-19T07:58:16;27.10;;;13.32;;
25391;SDS011;13329;48.402;11.718;2022-08-19T08:00:42;24.98;;;12.95;;
25391;SDS011;13329;48.402;11.718;2022-08-19T08:03:07;28.13;;;13.10;;
25391;SDS011;13329;48.402;11.718;2022-08-19T08:05:33;26.38;;;13.35;;
25391;SDS011;13329;48.402;11.718;2022-08-19T08:08:17;24.88;;;12.88;;
25391;SDS011;13329;48.402;11.718;2022-08-19T08:11:01;28.65;;;14.00;;
25391;SDS011;13329;48.402;11.718;2022-08-19T08:13:26;29.67;;;13.13;;
25391;SDS011;13329;48.402;11.718;2022-08-19T08:15:52;27.75;;;13.20;;
25391;SDS011;13329;48.402;11.718;2022-08-19T08:18:17;26.90;;;13.07;;
25391;SDS011;13329;48.402;11.718;2022-08-19T08:20:43;28.15;;;13.32;;
25391;SDS011;13329;48.402;11.718;2022-08-19T08:23:08;27.00;;;12.98;;
25391;SDS011;13329;48.402;11.718;2022-08-19T08:25:54;27.58;;;12.80;;
25391;SDS011;13329;48.402;11.718;2022-08-19T08:28:20;26.33;;;12.57;;
25391;SDS011;13329;48.402;11.718;2022-08-19T08:30:46;25.53;;;12.37;;
25391;SDS011;13329;48.402;11.718;2022-08-19T08:33:14;28.63;;;13.00;;
25391;SDS011;13329;48.402;11.718;2022-08-19T08:35:41;25.17;;;12.45;;
25391;SDS011;13329;48.402;11.718;2022-08-19T08:38:07;25.25;;;12.75;;
25391;SDS011;13329;48.402;11.718;2022-08-19T08:43:07;28.05;;;13.10;;
25391;SDS011;13329;48.402;11.718;2022-08-19T08:45:35;29.25;;;13.85;;
25391;SDS011;13329;48.402;11.718;2022-08-19T08:48:05;31.75;;;13.95;;
25391;SDS011;13329;48.402;11.718;2022-08-19T08:50:33;29.17;;;14.23;;
25391;SDS011;13329;48.402;11.718;2022-08-19T08:53:03;26.67;;;13.95;;
25391;SDS011;13329;48.402;11.718;2022-08-19T08:55:30;32.38;;;15.02;;
25391;SDS011;13329;48.402;11.718;2022-08-19T08:57:59;31.63;;;14.63;;
25391;SDS011;13329;48.402;11.718;2022-08-19T09:00:37;33.55;;;14.45;;
25391;SDS011;13329;48.402;11.718;2022-08-19T09:03:03;33.63;;;15.02;;
25391;SDS011;13329;48.402;11.718;2022-08-19T09:05:41;32.80;;;15.32;;
25391;SDS011;13329;48.402;11.718;2022-08-19T09:08:17;30.25;;;14.27;;
25391;SDS011;13329;48.402;11.718;2022-08-19T09:10:44;33.08;;;15.25;;
25391;SDS011;13329;48.402;11.718;2022-08-19T09:13:23;36.15;;;15.48;;
25391;SDS011;13329;48.402;11.718;2022-08-19T09:15:52;34.42;;;15.10;;
25391;SDS011;13329;48.402;11.718;2022-08-19T09:18:18;35.45;;;15.68;;
25391;SDS011;13329;48.402;11.718;2022-08-19T09:20:44;45.28;;;18.27;;
25391;SDS011;13329;48.402;11.718;2022-08-19T09:23:09;37.08;;;16.90;;
25391;SDS011;13329;48.402;11.718;2022-08-19T09:25:35;34.63;;;15.95;;
25391;SDS011;13329;48.402;11.718;2022-08-19T09:28:01;36.88;;;16.52;;
25391;SDS011;13329;48.402;11.718;2022-08-19T09:30:34;39.90;;;16.30;;
25391;SDS011;13329;48.402;11.718;2022-08-19T09:33:03;36.80;;;16.45;;
25391;SDS011;13329;48.402;11.718;2022-08-19T09:35:29;37.30;;;14.90;;
25391;SDS011;13329;48.402;11.718;2022-08-19T09:37:55;37.10;;;17.15;;
25391;SDS011;13329;48.402;11.718;2022-08-19T09:40:21;45.30;;;17.88;;
25391;SDS011;13329;48.402;11.718;2022-08-19T09:42:47;36.30;;;16.63;;
25391;SDS011;13329;48.402;11.718;2022-08-19T09:45:15;34.17;;;15.98;;
25391;SDS011;13329;48.402;11.718;2022-08-19T09:47:41;44.22;;;18.52;;
25391;SDS011;13329;48.402;11.718;2022-08-19T09:50:07;42.73;;;18.33;;
25391;SDS011;13329;48.402;11.718;2022-08-19T09:52:33;45.80;;;18.25;;
25391;SDS011;13329;48.402;11.718;2022-08-19T09:55:01;35.53;;;14.55;;
25391;SDS011;13329;48.402;11.718;2022-08-19T09:57:26;41.15;;;17.55;;
25391;SDS011;13329;48.402;11.718;2022-08-19T09:59:51;40.93;;;18.63;;
25391;SDS011;13329;48.402;11.718;2022-08-19T10:02:16;39.20;;;17.42;;
25391;SDS011;13329;48.402;11.718;2022-08-19T10:04:43;37.95;;;15.90;;
25391;SDS011;13329;48.402;11.718;2022-08-19T10:07:28;40.35;;;17.55;;
25391;SDS011;13329;48.402;11.718;2022-08-19T10:09:53;41.67;;;17.63;;
25391;SDS011;13329;48.402;11.718;2022-08-19T10:12:19;42.72;;;18.42;;
25391;SDS011;13329;48.402;11.718;2022-08-19T10:14:44;39.65;;;17.15;;
25391;SDS011;13329;48.402;11.718;2022-08-19T10:17:11;32.13;;;14.57;;
25391;SDS011;13329;48.402;11.718;2022-08-19T10:19:36;36.08;;;16.55;;
25391;SDS011;13329;48.402;11.718;2022-08-19T10:22:02;33.77;;;13.80;;
25391;SDS011;13329;48.402;11.718;2022-08-19T10:24:28;25.88;;;12.07;;
25391;SDS011;13329;48.402;11.718;2022-08-19T10:26:53;21.65;;;11.20;;
25391;SDS011;13329;48.402;11.718;2022-08-19T10:29:18;23.13;;;11.60;;
25391;SDS011;13329;48.402;11.718;2022-08-19T10:31:43;24.33;;;12.20;;
25391;SDS011;13329;48.402;11.718;2022-08-19T10:34:09;21.83;;;10.52;;
25391;SDS011;13329;48.402;11.718;2022-08-19T10:36:35;25.92;;;12.05;;
25391;SDS011;13329;48.402;11.718;2022-08-19T10:39:02;21.95;;;10.13;;
25391;SDS011;13329;48.402;11.718;2022-08-19T10:41:30;23.13;;;12.75;;
25391;SDS011;13329;48.402;11.718;2022-08-19T10:43:56;21.75;;;10.85;;
25391;SDS011;13329;48.402;11.718;2022-08-19T10:46:23;25.52;;;11.10;;
25391;SDS011;13329;48.402;11.718;2022-08-19T10:48:49;20.70;;;11.02;;
25391;SDS011;13329;48.402;11.718;2022-08-19T10:51:14;20.53;;;11.30;;
25391;SDS011;13329;48.402;11.718;2022-08-19T10:53:58;18.92;;;10.82;;
25391;SDS011;13329;48.402;11.718;2022-08-19T10:56:24;16.58;;;9.30;;
25391;SDS011;13329;48.402;11.718;2022-08-19T11:01:33;13.60;;;8.15;;
25391;SDS011;13329;48.402;11.718;2022-08-19T11:03:59;14.55;;;9.30;;
25391;SDS011;13329;48.402;11.718;2022-08-19T11:06:24;14.18;;;7.57;;
25391;SDS011;13329;48.402;11.718;2022-08-19T11:08:50;13.18;;;8.05;;
25391;SDS011;13329;48.402;11.718;2022-08-19T11:11:16;14.13;;;7.47;;
25391;SDS011;13329;48.402;11.718;2022-08-19T11:13:41;16.75;;;8.55;;
25391;SDS011;13329;48.402;11.718;2022-08-19T11:16:08;13.63;;;8.40;;
25391;SDS011;13329;48.402;11.718;2022-08-19T11:18:38;18.00;;;9.20;;
25391;SDS011;13329;48.402;11.718;2022-08-19T11:21:14;16.13;;;9.82;;
25391;SDS011;13329;48.402;11.718;2022-08-19T11:23:41;17.75;;;10.73;;
25391;SDS011;13329;48.402;11.718;2022-08-19T11:26:07;18.87;;;10.70;;
25391;SDS011;13329;48.402;11.718;2022-08-19T11:28:32;19.43;;;11.53;;
25391;SDS011;13329;48.402;11.718;2022-08-19T11:30:57;21.05;;;10.70;;
25391;SDS011;13329;48.402;11.718;2022-08-19T11:33:22;19.83;;;11.33;;
25391;SDS011;13329;48.402;11.718;2022-08-19T11:35:47;19.63;;;10.07;;
25391;SDS011;13329;48.402;11.718;2022-08-19T11:38:14;16.48;;;9.32;;
25391;SDS011;13329;48.402;11.718;2022-08-19T11:40:39;18.30;;;10.35;;
25391;SDS011;13329;48.402;11.718;2022-08-19T11:43:06;16.65;;;9.15;;
25391;SDS011;13329;48.402;11.718;2022-08-19T11:45:32;16.30;;;9.63;;
25391;SDS011;13329;48.402;11.718;2022-08-19T11:47:57;18.00;;;10.20;;
25391;SDS011;13329;48.402;11.718;2022-08-19T11:50:23;16.73;;;9.87;;
25391;SDS011;13329;48.402;11.718;2022-08-19T11:52:48;16.98;;;9.60;;
25391;SDS011;13329;48.402;11.718;2022-08-19T11:55:14;15.95;;;8.20;;
25391;SDS011;13329;48.402;11.718;2022-08-19T11:57:40;17.77;;;8.20;;
25391;SDS011;13329;48.402;11.718;2022-08-19T12:00:06;18.65;;;10.73;;
25391;SDS011;13329;48.402;11.718;2022-08-19T12:02:32;14.85;;;8.43;;
25391;SDS011;13329;48.402;11.718;2022-08-19T12:04:57;17.23;;;9.70;;
25391;SDS011;13329;48.402;11.718;2022-08-19T12:07:22;16.70;;;10.43;;
25391;SDS011;13329;48.402;11.718;2022-08-19T12:09:47;17.50;;;9.53;;
25391;SDS011;13329;48.402;11.718;2022-08-19T12:12:13;13.83;;;8.23;;
25391;SDS011;13329;48.402;11.718;2022-08-19T12:14:38;15.77;;;7.45;;
25391;SDS011;13329;48.402;11.718;2022-08-19T12:17:03;11.07;;;6.90;;
25391;SDS011;13329;48.402;11.718;2022-08-19T12:19:31;13.15;;;7.95;;
25391;SDS011;13329;48.402;11.718;2022-08-19T12:21:59;15.67;;;8.57;;
25391;SDS011;13329;48.402;11.718;2022-08-19T12:24:26;12.98;;;7.95;;
25391;SDS011;13329;48.402;11.718;2022-08-19T12:26:51;12.57;;;7.70;;
25391;SDS011;13329;48.402;11.718;2022-08-19T12:29:16;12.85;;;7.97;;
25391;SDS011;13329;48.402;11.718;2022-08-19T12:31:42;11.68;;;6.68;;
25391;SDS011;13329;48.402;11.718;2022-08-19T12:34:07;9.57;;;6.03;;
25391;SDS011;13329;48.402;11.718;2022-08-19T12:36:33;6.40;;;4.07;;
25391;SDS011;13329;48.402;11.718;2022-08-19T12:38:58;6.88;;;4.22;;
25391;SDS011;13329;48.402;11.718;2022-08-19T12:41:24;7.50;;;3.47;;
25391;SDS011;13329;48.402;11.718;2022-08-19T12:43:50;4.50;;;3.08;;
25391;SDS011;13329;48.402;11.718;2022-08-19T12:46:15;5.70;;;2.75;;
25391;SDS011;13329;48.402;11.718;2022-08-19T12:48:40;7.23;;;4.17;;
25391;SDS011;13329;48.402;11.718;2022-08-19T12:51:10;4.65;;;2.92;;
25391;SDS011;13329;48.402;11.718;2022-08-19T12:53:37;6.50;;;2.55;;
25391;SDS011;13329;48.402;11.718;2022-08-19T12:56:02;2.53;;;1.85;;
25391;SDS011;13329;48.402;11.718;2022-08-19T12:58:28;2.55;;;1.85;;
25391;SDS011;13329;48.402;11.718;2022-08-19T13:00:54;3.70;;;1.80;;
25391;SDS011;13329;48.402;11.718;2022-08-19T13:03:19;2.10;;;1.33;;
25391;SDS011;13329;48.402;11.718;2022-08-19T13:05:45;2.88;;;1.58;;
25391;SDS011;13329;48.402;11.718;2022-08-19T13:08:10;2.23;;;1.30;;
25391;SDS011;13329;48.402;11.718;2022-08-19T13:10:36;1.98;;;1.23;;
25391;SDS011;13329;48.402;11.718;2022-08-19T13:13:03;1.17;;;0.93;;
25391;SDS011;13329;48.402;11.718;2022-08-19T13:15:29;2.20;;;0.93;;
25391;SDS011;13329;48.402;11.718;2022-08-19T13:17:57;1.20;;;1.00;;
25391;SDS011;13329;48.402;11.718;2022-08-19T13:20:23;1.33;;;0.93;;
25391;SDS011;13329;48.402;11.718;2022-08-19T13:22:48;1.30;;;0.95;;
25391;SDS011;13329;48.402;11.718;2022-08-19T13:25:14;1.70;;;0.90;;
25391;SDS011;13329;48.402;11.718;2022-08-19T13:27:41;1.98;;;1.20;;
25391;SDS011;13329;48.402;11.718;2022-08-19T13:30:08;1.65;;;1.02;;
25391;SDS011;13329;48.402;11.718;2022-08-19T13:32:52;2.22;;;1.38;;
25391;SDS011;13329;48.402;11.718;2022-08-19T13:35:46;2.00;;;1.35;;
25391;SDS011;13329;48.402;11.718;2022-08-19T13:38:12;2.00;;;1.45;;
25391;SDS011;13329;48.402;11.718;2022-08-19T13:40:38;2.10;;;1.50;;
25391;SDS011;13329;48.402;11.718;2022-08-19T13:43:04;4.65;;;1.60;;
25391;SDS011;13329;48.402;11.718;2022-08-19T13:45:30;3.60;;;1.42;;
25391;SDS011;13329;48.402;11.718;2022-08-19T13:47:58;1.80;;;1.23;;
25391;SDS011;13329;48.402;11.718;2022-08-19T13:50:25;1.58;;;1.10;;
25391;SDS011;13329;48.402;11.718;2022-08-19T13:52:51;2.13;;;1.50;;
25391;SDS011;13329;48.402;11.718;2022-08-19T13:55:17;1.33;;;0.98;;
25391;SDS011;13329;48.402;11.718;2022-08-19T13:57:42;1.13;;;0.65;;
25391;SDS011;13329;48.402;11.718;2022-08-19T14:00:09;0.98;;;0.82;;
25391;SDS011;13329;48.402;11.718;2022-08-19T14:02:38;0.80;;;0.70;;
25391;SDS011;13329;48.402;11.718;2022-08-19T14:05:04;1.02;;;0.73;;
25391;SDS011;13329;48.402;11.718;2022-08-19T14:07:30;0.88;;;0.73;;
25391;SDS011;13329;48.402;11.718;2022-08-19T14:09:55;3.13;;;1.20;;
25391;SDS011;13329;48.402;11.718;2022-08-19T14:12:20;1.03;;;0.90;;
25391;SDS011;13329;48.402;11.718;2022-08-19T14:14:46;1.65;;;0.98;;
25391;SDS011;13329;48.402;11.718;2022-08-19T14:17:11;0.80;;;0.60;;
25391;SDS011;13329;48.402;11.718;2022-08-19T14:19:37;2.33;;;0.70;;
25391;SDS011;13329;48.402;11.718;2022-08-19T14:22:02;1.03;;;0.80;;
25391;SDS011;13329;48.402;11.718;2022-08-19T14:24:27;2.27;;;1.67;;